Weather at Halim Perdanakusuma International Airport

Public forecast

Using degrees Celsius for public forecast. Weather courtesy of forecast.io.

Current aviation weather report (METAR) for Halim Perdanakusuma International Airport

2024/05/19 08:30 (retrieved 43 minutes ago)

WIHH 190830Z 36003KT 5000 HZ SCT020 32/24 Q1004 RMK RA TO S METAR WIMM 190830Z 35009KT 9999 SCT017 32/27 Q1003 NOSIG

Aviation forecast (TAF) for Halim Perdanakusuma International Airport

2024/05/19 06:00 (retrieved 3 hours ago)

TAF WIHH 190500Z 1906/2006 04012KT 7000 SCT018 BECMG 1914/1916 16004KT 5000 HZ